Aérodrome :
LOGIN :

S'inscrire | Disclaimer

   EN    FR    IT 

 










Légende :    VFR   VFR Marginal   IFR   IFR Intensif   IFR Très Intensif
Visi : 
Plafond : 
>= 8 km
>= 3000ft
5 à 8 km
1000 à 3000 ft
1500m à 5 km
500 à 1000 ft
800 à 1500m
200 à 500 ft
< 800m
< 200 ft
Symboles :   Orages  Brouillard  Fortes neiges  Fortes précipitations  Vent > 20 kt
SIGMETs :   Divers  Orages  Givrage  Turbulence  Onde Orograph.  Cendres Volcan.






- Altitude de l'aérodrome : 922 ft
- Code IATA : RPN


LLIB - Ben Ya'akov

DERNIER METAR :
  • 300650Z VRB03KT CAVOK 18/10 Q1015

METARs EXPIRÉS :
  • 300550Z VRB01KT CAVOK 17/11 Q1014

TAF TAF LLIB
Valide du 30 à 06h jusqu'au 31 à 06h UTC


300510Z 3006/3106 VRB03KT CAVOK
BECMG 3007/3010 14007KT
BECMG 3012/3014 35008KT
BECMG 3016/3018 VRB03KT TX22/3012Z TN15/3104Z



MET'MAP, la Météo Aéronautique d'un coup d'oeil ! - Copyright ORBIFLY Décembre 2007 - Disclaimer

ORBIFLY MET'MAP TEAM :

Programmation & Développement : Alexandra Zaïnal
Sur une idée originale de : Baudouin d'Aumeries
Assistance à la programmation : Marc-Olivier Méhu
Soutien technique & logistique : Manuel Goepfert

Contact : metmap@orbifly.com




SOURCES & CREDITS :

   NOAA